Weather at Geneva Cointrin International Airport

Public forecast

Using degrees Celsius for public forecast. Weather courtesy of forecast.io.

Current aviation weather report (METAR) for Geneva Cointrin International Airport

Retrieved 2022/07/01 05:20 UTC (5 minutes ago):

LSGG 010520Z VRB02KT 9999 FEW025 BKN050 14/13 Q1019 NOSIG

Aviation forecast (TAF) for Geneva Cointrin International Airport

Retrieved 2022-07-01 03:33 UTC (2 hours ago):

TAF TAF LSGG 010225Z 0103/0209 22007KT 9999 SHRA FEW030 BKN060 TX22/0113Z TN14/0104Z TN11/0204Z BECMG 0105/0107 NSW BECMG 0110/0112 05007KT BECMG 0120/0122 VRB02KT